Huvudsida
METAR-TAF:

METAR-TAF

Flygplatser :

Burgos Villafria Airport

Burgos, Spanien

latitud: 42-22N, longitud: 003-38W, höjd: 894 m

Aktuellt väderrapport

Denna rapport gjordes för 34 minuter sedan, klockan 06:00 UTC
Vind 3 kt från nordost
Temperatur 15°C
Fuktighet 82%
Tryck 1025 hPa
Sikt 10 km eller mer
Inga moln under 1 500 m eller inga cumulonimbus

METAR: LEBG 230600Z 04003KT CAVOK 15/12 Q1025

Tid: 08:34 (06:34 UTC)

Väderprognos

Denna rapport gjordes för 4 timmar och 34 minuter sedan, klockan 02:00 UTC
Prognos gäller från 23 kl. 03 UTC till 24 kl. 03 UTC
Vind 9 kt från ost/nordost
Sikt 10 km eller mer
Inga moln under 1 500 m eller inga cumulonimbus
Blir
från 23 kl. 15 UTC till 23 kl. 17 UTC
Vind 12 kt från nordost
Sannolikhet 30%
från 23 kl. 17 UTC till 23 kl. 21 UTC
Vind 15 kt från nordost i byarna ända upp till 25 kt

TAF: LEBG 230200Z 2303/2403 06009KT CAVOK TX33/2315Z TN14/2304Z BECMG 2315/2317 05012KT PROB30 2317/2321 05015G25KT

Aktuella väderrapporter och prognoser från 4000 flygplatser (METAR- och TAF-rapporter).

De tillgängliga stationerna syns som gula och röda prickar på kartan.

För musen över prickarna för att se namnen på stationerna.

Klicka sedan för att få väderrapporter och prognoser.

För att ändra kartan: Klicka på de gröna knapparna med ett svart kors på för att zooma in; den gröna knappen med ett streck på för att zooma ut; eller på de gröna pilarna för angränsande kartor.


METAR-TAF: